AAY1591 KPVU-KIWA
Flight info
| Callsign | AAY1591 |
|---|---|
| Flight time | 1h 17m |
| Altitude | 37000 |
| Route | DITTI1 DAHLI TBC INW HUUTY1 |
| Aircraft | A320/M-SDFGHIRWYZ/SB1 |
Departure
| Time | 2026-04-22 23:33 |
|---|---|
| Airport | Provo Municipal Airport (KPVU) |
Arrival
| Time | 2026-04-23 00:50 |
|---|---|
| Airport | Mesa Gateway Airport (KIWA) |
| Time | Latitude | Longitude | Altitude | Speed | Heading |
|---|---|---|---|---|---|
| 2026-04-22 22:50 | 40.21369 | -111.71333 | 4499 ft | 0 kts | 56° |
| 2026-04-22 23:25 | 40.21366 | -111.71339 | 4501 ft | 4 kts | 55° |
| 2026-04-22 23:25 | 40.21349 | -111.71367 | 4501 ft | 4 kts | 53° |
| 2026-04-22 23:25 | 40.21338 | -111.71394 | 4502 ft | 2 kts | 82° |
| 2026-04-22 23:26 | 40.21340 | -111.71425 | 4501 ft | 4 kts | 127° |
| 2026-04-22 23:26 | 40.21352 | -111.71448 | 4498 ft | 1 kts | 101° |
| 2026-04-22 23:29 | 40.21348 | -111.71441 | 4498 ft | 4 kts | 121° |
| 2026-04-22 23:29 | 40.21293 | -111.71401 | 4502 ft | 10 kts | 152° |
| 2026-04-22 23:29 | 40.21240 | -111.71405 | 4499 ft | 6 kts | 214° |
| 2026-04-22 23:29 | 40.21204 | -111.71408 | 4502 ft | 6 kts | 167° |
| 2026-04-22 23:30 | 40.21156 | -111.71394 | 4497 ft | 7 kts | 189° |
| 2026-04-22 23:30 | 40.21129 | -111.71422 | 4497 ft | 0 kts | 228° |
| 2026-04-22 23:30 | 40.21115 | -111.71444 | 4496 ft | 8 kts | 233° |
| 2026-04-22 23:31 | 40.21091 | -111.71489 | 4497 ft | 2 kts | 235° |
| 2026-04-22 23:31 | 40.21089 | -111.71493 | 4497 ft | 1 kts | 235° |
| 2026-04-22 23:31 | 40.21087 | -111.71514 | 4497 ft | 2 kts | 276° |
| 2026-04-22 23:31 | 40.21102 | -111.71543 | 4500 ft | 6 kts | 317° |
| 2026-04-22 23:32 | 40.21111 | -111.71552 | 4498 ft | 0 kts | 324° |
| 2026-04-22 23:32 | 40.21122 | -111.71562 | 4498 ft | 9 kts | 324° |
| 2026-04-22 23:32 | 40.21356 | -111.71764 | 4503 ft | 77 kts | 326° |
| 2026-04-22 23:32 | 40.21977 | -111.72320 | 4499 ft | 137 kts | 326° |
| 2026-04-22 23:33 | 40.22876 | -111.73116 | 4800 ft | 161 kts | 326° |
| 2026-04-22 23:33 | 40.23675 | -111.74114 | 5541 ft | 164 kts | 296° |
| 2026-04-22 23:33 | 40.23753 | -111.75605 | 6236 ft | 172 kts | 253° |
| 2026-04-22 23:33 | 40.23096 | -111.76997 | 6623 ft | 193 kts | 236° |
| 2026-04-22 23:34 | 40.22177 | -111.78397 | 6944 ft | 213 kts | 235° |
| 2026-04-22 23:34 | 40.21142 | -111.79979 | 7275 ft | 239 kts | 233° |
| 2026-04-22 23:34 | 40.20007 | -111.81707 | 7736 ft | 260 kts | 231° |
| 2026-04-22 23:34 | 40.18802 | -111.83504 | 8407 ft | 270 kts | 231° |
| 2026-04-22 23:35 | 40.17533 | -111.85380 | 9269 ft | 273 kts | 231° |
| 2026-04-22 23:35 | 40.16290 | -111.87227 | 10135 ft | 275 kts | 231° |
| 2026-04-22 23:35 | 40.14962 | -111.89149 | 10557 ft | 297 kts | 226° |
| 2026-04-22 23:35 | 40.13257 | -111.90816 | 11069 ft | 315 kts | 213° |
| 2026-04-22 23:36 | 40.11213 | -111.91939 | 11892 ft | 324 kts | 200° |
| 2026-04-22 23:36 | 40.09008 | -111.92591 | 12775 ft | 325 kts | 198° |
| 2026-04-22 23:36 | 40.06797 | -111.93208 | 13592 ft | 326 kts | 198° |
| 2026-04-22 23:36 | 40.04580 | -111.93828 | 14346 ft | 328 kts | 198° |
| 2026-04-22 23:37 | 40.02329 | -111.94304 | 15063 ft | 333 kts | 191° |
| 2026-04-22 23:37 | 39.99971 | -111.94145 | 15806 ft | 347 kts | 177° |
| 2026-04-22 23:37 | 39.97619 | -111.93324 | 16548 ft | 351 kts | 170° |
| 2026-04-22 23:37 | 39.95262 | -111.92378 | 17262 ft | 357 kts | 171° |
| 2026-04-22 23:38 | 39.92898 | -111.91437 | 17990 ft | 357 kts | 171° |
| 2026-04-22 23:38 | 39.90526 | -111.90526 | 18611 ft | 352 kts | 175° |
| 2026-04-22 23:38 | 39.88130 | -111.90085 | 19139 ft | 345 kts | 186° |
| 2026-04-22 23:38 | 39.85812 | -111.90238 | 19640 ft | 339 kts | 196° |
| 2026-04-22 23:39 | 39.83460 | -111.90654 | 20184 ft | 344 kts | 195° |
| 2026-04-22 23:39 | 39.81081 | -111.91073 | 20784 ft | 346 kts | 196° |
| 2026-04-22 23:39 | 39.78688 | -111.91492 | 21360 ft | 348 kts | 197° |
| 2026-04-22 23:39 | 39.76297 | -111.91908 | 21857 ft | 348 kts | 197° |
| 2026-04-22 23:40 | 39.73852 | -111.92324 | 22347 ft | 352 kts | 197° |
| 2026-04-22 23:40 | 39.71400 | -111.92658 | 22851 ft | 360 kts | 192° |
| 2026-04-22 23:40 | 39.68851 | -111.92433 | 23339 ft | 375 kts | 183° |
| 2026-04-22 23:40 | 39.66264 | -111.91928 | 23789 ft | 378 kts | 183° |
| 2026-04-22 23:41 | 39.63657 | -111.91419 | 24233 ft | 380 kts | 183° |
| 2026-04-22 23:41 | 39.61033 | -111.90911 | 24653 ft | 382 kts | 184° |
| 2026-04-22 23:41 | 39.58400 | -111.90406 | 25087 ft | 383 kts | 184° |
| 2026-04-22 23:41 | 39.55786 | -111.89906 | 25496 ft | 386 kts | 184° |
| 2026-04-22 23:42 | 39.53089 | -111.89390 | 25923 ft | 387 kts | 184° |
| 2026-04-22 23:42 | 39.50451 | -111.88884 | 26341 ft | 390 kts | 184° |
| 2026-04-22 23:42 | 39.47762 | -111.88368 | 26773 ft | 391 kts | 183° |
| 2026-04-22 23:42 | 39.45064 | -111.87849 | 27184 ft | 393 kts | 183° |
| 2026-04-22 23:43 | 39.42356 | -111.87330 | 27579 ft | 395 kts | 183° |
| 2026-04-22 23:43 | 39.39626 | -111.86805 | 27962 ft | 398 kts | 183° |
| 2026-04-22 23:43 | 39.36886 | -111.86279 | 28381 ft | 399 kts | 183° |
| 2026-04-22 23:43 | 39.34132 | -111.85752 | 28779 ft | 401 kts | 183° |
| 2026-04-22 23:44 | 39.31371 | -111.85222 | 29117 ft | 403 kts | 183° |
| 2026-04-22 23:44 | 39.28589 | -111.84693 | 29465 ft | 405 kts | 183° |
| 2026-04-22 23:44 | 39.25797 | -111.84164 | 29834 ft | 407 kts | 183° |
| 2026-04-22 23:44 | 39.22989 | -111.83631 | 30151 ft | 409 kts | 183° |
| 2026-04-22 23:45 | 39.20168 | -111.83095 | 30459 ft | 411 kts | 183° |
| 2026-04-22 23:45 | 39.17327 | -111.82556 | 30751 ft | 413 kts | 183° |
| 2026-04-22 23:45 | 39.14479 | -111.82014 | 31020 ft | 415 kts | 183° |
| 2026-04-22 23:45 | 39.11609 | -111.81469 | 31266 ft | 418 kts | 183° |
| 2026-04-22 23:46 | 39.08724 | -111.80921 | 31556 ft | 419 kts | 183° |
| 2026-04-22 23:46 | 39.05839 | -111.80373 | 31921 ft | 419 kts | 183° |
| 2026-04-22 23:46 | 39.02956 | -111.79828 | 32275 ft | 419 kts | 183° |
| 2026-04-22 23:46 | 39.00076 | -111.79281 | 32636 ft | 418 kts | 183° |
| 2026-04-22 23:47 | 38.97198 | -111.78730 | 32971 ft | 418 kts | 183° |
| 2026-04-22 23:47 | 38.94326 | -111.78182 | 33296 ft | 418 kts | 183° |
| 2026-04-22 23:47 | 38.91450 | -111.77638 | 33635 ft | 418 kts | 183° |
| 2026-04-22 23:47 | 38.88579 | -111.77099 | 33950 ft | 417 kts | 183° |
| 2026-04-22 23:48 | 38.85708 | -111.76562 | 34285 ft | 417 kts | 183° |
| 2026-04-22 23:48 | 38.82835 | -111.76022 | 34579 ft | 417 kts | 183° |
| 2026-04-22 23:48 | 38.79962 | -111.75483 | 34810 ft | 418 kts | 183° |
| 2026-04-22 23:48 | 38.77077 | -111.74947 | 35057 ft | 419 kts | 183° |
| 2026-04-22 23:49 | 38.74191 | -111.74407 | 35326 ft | 420 kts | 183° |
| 2026-04-22 23:49 | 38.71301 | -111.73864 | 35593 ft | 420 kts | 183° |
| 2026-04-22 23:49 | 38.68407 | -111.73322 | 35824 ft | 420 kts | 183° |
| 2026-04-22 23:49 | 38.65510 | -111.72780 | 36040 ft | 422 kts | 183° |
| 2026-04-22 23:50 | 38.62605 | -111.72237 | 36292 ft | 422 kts | 183° |
| 2026-04-22 23:50 | 38.59699 | -111.71694 | 36528 ft | 422 kts | 183° |
| 2026-04-22 23:50 | 38.56791 | -111.71151 | 36719 ft | 423 kts | 183° |
| 2026-04-22 23:50 | 38.54863 | -111.70792 | 36839 ft | 423 kts | 183° |
| 2026-04-22 23:51 | 38.50963 | -111.70064 | 36987 ft | 422 kts | 183° |
| 2026-04-22 23:51 | 38.49041 | -111.69703 | 37000 ft | 421 kts | 183° |
| 2026-04-22 23:51 | 38.43265 | -111.68613 | 36999 ft | 418 kts | 183° |
| 2026-04-22 23:52 | 38.37539 | -111.67543 | 37016 ft | 415 kts | 183° |
| 2026-04-22 23:52 | 38.31836 | -111.66490 | 36995 ft | 414 kts | 183° |
| 2026-04-22 23:53 | 38.26140 | -111.65444 | 36981 ft | 413 kts | 183° |
| 2026-04-22 23:53 | 38.20453 | -111.64399 | 36984 ft | 413 kts | 183° |
| 2026-04-22 23:54 | 38.14760 | -111.63351 | 36991 ft | 413 kts | 183° |
| 2026-04-22 23:54 | 38.09066 | -111.62296 | 36992 ft | 414 kts | 184° |
| 2026-04-22 23:55 | 38.03362 | -111.61248 | 36996 ft | 414 kts | 184° |
| 2026-04-22 23:55 | 37.97657 | -111.60197 | 37000 ft | 414 kts | 183° |
| 2026-04-22 23:56 | 37.91949 | -111.59146 | 37004 ft | 415 kts | 183° |
| 2026-04-22 23:56 | 37.86237 | -111.58094 | 37002 ft | 415 kts | 183° |
| 2026-04-22 23:57 | 37.80514 | -111.57043 | 37007 ft | 416 kts | 183° |
| 2026-04-22 23:57 | 37.74786 | -111.55995 | 37019 ft | 416 kts | 183° |
| 2026-04-22 23:58 | 37.69093 | -111.54965 | 37018 ft | 416 kts | 183° |
| 2026-04-22 23:58 | 37.63365 | -111.53921 | 37015 ft | 416 kts | 183° |
| 2026-04-22 23:59 | 37.57640 | -111.52875 | 37008 ft | 416 kts | 183° |
| 2026-04-22 23:59 | 37.51877 | -111.51830 | 37004 ft | 415 kts | 183° |
| 2026-04-23 00:00 | 37.43332 | -111.50280 | 36993 ft | 416 kts | 183° |
| 2026-04-23 00:01 | 37.37601 | -111.49249 | 36985 ft | 416 kts | 183° |
| 2026-04-23 00:01 | 37.31870 | -111.48220 | 36972 ft | 416 kts | 183° |
| 2026-04-23 00:02 | 37.26135 | -111.47187 | 36963 ft | 416 kts | 183° |
| 2026-04-23 00:02 | 37.20415 | -111.46150 | 36953 ft | 412 kts | 183° |
| 2026-04-23 00:03 | 37.14789 | -111.45130 | 36525 ft | 406 kts | 183° |
| 2026-04-23 00:03 | 37.12001 | -111.44631 | 35960 ft | 404 kts | 183° |
| 2026-04-23 00:03 | 37.09210 | -111.44134 | 35334 ft | 405 kts | 183° |
| 2026-04-23 00:03 | 37.06419 | -111.43639 | 34694 ft | 406 kts | 183° |
| 2026-04-23 00:04 | 37.03620 | -111.43143 | 34113 ft | 406 kts | 183° |
| 2026-04-23 00:04 | 37.00818 | -111.42645 | 33911 ft | 408 kts | 183° |
| 2026-04-23 00:04 | 36.97999 | -111.42143 | 33908 ft | 410 kts | 182° |
| 2026-04-23 00:05 | 36.92318 | -111.41133 | 33915 ft | 414 kts | 182° |
| 2026-04-23 00:05 | 36.86608 | -111.40112 | 33915 ft | 415 kts | 182° |
| 2026-04-23 00:06 | 36.80897 | -111.39083 | 33917 ft | 415 kts | 182° |
| 2026-04-23 00:06 | 36.75177 | -111.38061 | 33923 ft | 415 kts | 182° |
| 2026-04-23 00:07 | 36.69457 | -111.37047 | 33918 ft | 415 kts | 182° |
| 2026-04-23 00:07 | 36.63736 | -111.36035 | 33916 ft | 415 kts | 182° |
| 2026-04-23 00:08 | 36.58014 | -111.35018 | 33918 ft | 415 kts | 182° |
| 2026-04-23 00:08 | 36.52284 | -111.34012 | 33924 ft | 416 kts | 182° |
| 2026-04-23 00:09 | 36.46556 | -111.32999 | 33927 ft | 416 kts | 181° |
| 2026-04-23 00:09 | 36.40819 | -111.31984 | 33930 ft | 417 kts | 181° |
| 2026-04-23 00:10 | 36.35072 | -111.30974 | 33943 ft | 417 kts | 181° |
| 2026-04-23 00:10 | 36.29326 | -111.29975 | 33970 ft | 418 kts | 181° |
| 2026-04-23 00:11 | 36.23556 | -111.28963 | 33966 ft | 419 kts | 181° |
| 2026-04-23 00:11 | 36.17780 | -111.27948 | 33971 ft | 420 kts | 181° |
| 2026-04-23 00:12 | 36.12002 | -111.26802 | 33975 ft | 427 kts | 174° |
| 2026-04-23 00:12 | 36.06319 | -111.24331 | 33979 ft | 434 kts | 169° |
| 2026-04-23 00:13 | 36.00650 | -111.21752 | 33989 ft | 435 kts | 169° |
| 2026-04-23 00:13 | 35.94972 | -111.19178 | 33980 ft | 435 kts | 169° |
| 2026-04-23 00:14 | 35.89261 | -111.16604 | 34052 ft | 440 kts | 169° |
| 2026-04-23 00:14 | 35.83494 | -111.14005 | 34063 ft | 442 kts | 168° |
| 2026-04-23 00:15 | 35.77720 | -111.11401 | 34071 ft | 442 kts | 169° |
| 2026-04-23 00:15 | 35.71948 | -111.08812 | 34078 ft | 442 kts | 169° |
| 2026-04-23 00:16 | 35.66178 | -111.06222 | 34074 ft | 441 kts | 168° |
| 2026-04-23 00:16 | 35.60414 | -111.03637 | 34072 ft | 441 kts | 168° |
| 2026-04-23 00:17 | 35.54659 | -111.01057 | 34058 ft | 441 kts | 168° |
| 2026-04-23 00:17 | 35.48900 | -110.98477 | 34054 ft | 440 kts | 168° |
| 2026-04-23 00:18 | 35.43139 | -110.95906 | 34051 ft | 441 kts | 169° |
| 2026-04-23 00:18 | 35.37411 | -110.93359 | 34052 ft | 441 kts | 169° |
| 2026-04-23 00:19 | 35.31596 | -110.90774 | 34052 ft | 442 kts | 168° |
| 2026-04-23 00:19 | 35.25818 | -110.88202 | 34043 ft | 442 kts | 168° |
| 2026-04-23 00:20 | 35.20035 | -110.85634 | 34045 ft | 442 kts | 169° |
| 2026-04-23 00:20 | 35.14281 | -110.83085 | 34041 ft | 443 kts | 169° |
| 2026-04-23 00:21 | 35.08431 | -110.80508 | 33702 ft | 446 kts | 169° |
| 2026-04-23 00:21 | 35.05494 | -110.79413 | 33112 ft | 435 kts | 176° |
| 2026-04-23 00:21 | 35.02547 | -110.78804 | 32553 ft | 427 kts | 180° |
| 2026-04-23 00:21 | 34.99628 | -110.78250 | 31988 ft | 424 kts | 180° |
| 2026-04-23 00:22 | 34.96715 | -110.77693 | 31442 ft | 421 kts | 179° |
| 2026-04-23 00:22 | 34.93836 | -110.77139 | 30893 ft | 417 kts | 179° |
| 2026-04-23 00:22 | 34.91020 | -110.76598 | 30362 ft | 413 kts | 179° |
| 2026-04-23 00:22 | 34.88156 | -110.76052 | 29835 ft | 409 kts | 179° |
| 2026-04-23 00:23 | 34.85393 | -110.75527 | 29344 ft | 405 kts | 179° |
| 2026-04-23 00:23 | 34.82623 | -110.75000 | 28839 ft | 401 kts | 179° |
| 2026-04-23 00:23 | 34.79879 | -110.74478 | 28331 ft | 397 kts | 179° |
| 2026-04-23 00:23 | 34.77165 | -110.73963 | 27846 ft | 392 kts | 179° |
| 2026-04-23 00:24 | 34.74480 | -110.73454 | 27385 ft | 388 kts | 179° |
| 2026-04-23 00:24 | 34.71836 | -110.72954 | 26929 ft | 383 kts | 179° |
| 2026-04-23 00:24 | 34.69216 | -110.72460 | 26461 ft | 379 kts | 179° |
| 2026-04-23 00:24 | 34.66626 | -110.71975 | 26008 ft | 375 kts | 179° |
| 2026-04-23 00:25 | 34.64058 | -110.71491 | 25564 ft | 371 kts | 179° |
| 2026-04-23 00:25 | 34.61522 | -110.71007 | 25101 ft | 368 kts | 179° |
| 2026-04-23 00:25 | 34.58998 | -110.70524 | 24650 ft | 364 kts | 179° |
| 2026-04-23 00:25 | 34.56506 | -110.70050 | 24198 ft | 361 kts | 179° |
| 2026-04-23 00:26 | 34.54035 | -110.69582 | 23740 ft | 359 kts | 179° |
| 2026-04-23 00:26 | 34.51575 | -110.69119 | 23265 ft | 356 kts | 178° |
| 2026-04-23 00:26 | 34.49131 | -110.68660 | 22893 ft | 355 kts | 178° |
| 2026-04-23 00:26 | 34.46658 | -110.68204 | 22735 ft | 362 kts | 178° |
| 2026-04-23 00:27 | 34.44159 | -110.67744 | 22523 ft | 363 kts | 178° |
| 2026-04-23 00:27 | 34.41664 | -110.67279 | 22316 ft | 362 kts | 178° |
| 2026-04-23 00:27 | 34.39177 | -110.66812 | 22094 ft | 361 kts | 178° |
| 2026-04-23 00:27 | 34.36697 | -110.66345 | 21879 ft | 360 kts | 178° |
| 2026-04-23 00:28 | 34.34221 | -110.65881 | 21670 ft | 359 kts | 178° |
| 2026-04-23 00:28 | 34.31755 | -110.65422 | 21466 ft | 358 kts | 178° |
| 2026-04-23 00:28 | 34.29294 | -110.64964 | 21234 ft | 357 kts | 178° |
| 2026-04-23 00:28 | 34.26840 | -110.64509 | 21018 ft | 357 kts | 178° |
| 2026-04-23 00:29 | 34.24390 | -110.64056 | 20800 ft | 356 kts | 178° |
| 2026-04-23 00:29 | 34.21948 | -110.63602 | 20607 ft | 355 kts | 178° |
| 2026-04-23 00:29 | 34.19512 | -110.63154 | 20375 ft | 353 kts | 179° |
| 2026-04-23 00:29 | 34.17098 | -110.63087 | 20164 ft | 342 kts | 192° |
| 2026-04-23 00:30 | 34.14795 | -110.63639 | 19884 ft | 335 kts | 203° |
| 2026-04-23 00:30 | 34.12697 | -110.64747 | 19493 ft | 325 kts | 214° |
| 2026-04-23 00:30 | 34.10730 | -110.66089 | 19090 ft | 324 kts | 214° |
| 2026-04-23 00:30 | 34.08768 | -110.67417 | 18721 ft | 323 kts | 214° |
| 2026-04-23 00:31 | 34.06805 | -110.68735 | 18354 ft | 322 kts | 213° |
| 2026-04-23 00:31 | 34.04850 | -110.70040 | 17927 ft | 321 kts | 213° |
| 2026-04-23 00:31 | 34.02898 | -110.71339 | 17546 ft | 319 kts | 213° |
| 2026-04-23 00:31 | 34.00964 | -110.72628 | 17177 ft | 317 kts | 213° |
| 2026-04-23 00:32 | 33.99038 | -110.73915 | 16822 ft | 316 kts | 213° |
| 2026-04-23 00:32 | 33.97768 | -110.74767 | 16589 ft | 315 kts | 213° |
| 2026-04-23 00:32 | 33.95853 | -110.76052 | 16217 ft | 315 kts | 213° |
| 2026-04-23 00:32 | 33.93295 | -110.77764 | 15732 ft | 313 kts | 213° |
| 2026-04-23 00:33 | 33.92035 | -110.78604 | 15495 ft | 312 kts | 212° |
| 2026-04-23 00:33 | 33.90139 | -110.79865 | 15130 ft | 311 kts | 212° |
| 2026-04-23 00:33 | 33.88251 | -110.81123 | 14788 ft | 309 kts | 212° |
| 2026-04-23 00:33 | 33.86373 | -110.82378 | 14433 ft | 309 kts | 212° |
| 2026-04-23 00:34 | 33.84551 | -110.83722 | 14069 ft | 305 kts | 220° |
| 2026-04-23 00:34 | 33.83040 | -110.85460 | 13837 ft | 300 kts | 231° |
| 2026-04-23 00:34 | 33.81759 | -110.87425 | 13651 ft | 298 kts | 233° |
| 2026-04-23 00:34 | 33.80482 | -110.89391 | 13450 ft | 298 kts | 233° |
| 2026-04-23 00:35 | 33.79209 | -110.91353 | 13259 ft | 297 kts | 233° |
| 2026-04-23 00:35 | 33.77940 | -110.93310 | 13070 ft | 297 kts | 233° |
| 2026-04-23 00:35 | 33.76671 | -110.95271 | 12876 ft | 297 kts | 233° |
| 2026-04-23 00:35 | 33.75401 | -110.97223 | 12666 ft | 296 kts | 233° |
| 2026-04-23 00:36 | 33.74133 | -110.99173 | 12480 ft | 296 kts | 233° |
| 2026-04-23 00:36 | 33.72869 | -111.01117 | 12287 ft | 295 kts | 233° |
| 2026-04-23 00:36 | 33.71605 | -111.03059 | 12113 ft | 295 kts | 233° |
| 2026-04-23 00:36 | 33.70344 | -111.04997 | 11921 ft | 295 kts | 233° |
| 2026-04-23 00:37 | 33.69084 | -111.06933 | 11723 ft | 294 kts | 232° |
| 2026-04-23 00:37 | 33.67826 | -111.08861 | 11548 ft | 294 kts | 233° |
| 2026-04-23 00:37 | 33.66565 | -111.10790 | 11346 ft | 293 kts | 233° |
| 2026-04-23 00:37 | 33.65309 | -111.12713 | 11148 ft | 291 kts | 233° |
| 2026-04-23 00:38 | 33.64084 | -111.14589 | 10978 ft | 281 kts | 232° |
| 2026-04-23 00:38 | 33.62896 | -111.16426 | 10851 ft | 278 kts | 233° |
| 2026-04-23 00:38 | 33.61752 | -111.18284 | 10602 ft | 276 kts | 234° |
| 2026-04-23 00:38 | 33.60631 | -111.20148 | 10354 ft | 275 kts | 235° |
| 2026-04-23 00:39 | 33.59515 | -111.22018 | 10110 ft | 276 kts | 235° |
| 2026-04-23 00:39 | 33.58401 | -111.23881 | 9924 ft | 274 kts | 234° |
| 2026-04-23 00:39 | 33.57286 | -111.25739 | 9713 ft | 274 kts | 234° |
| 2026-04-23 00:39 | 33.56172 | -111.27591 | 9447 ft | 273 kts | 235° |
| 2026-04-23 00:40 | 33.55055 | -111.29438 | 9197 ft | 274 kts | 234° |
| 2026-04-23 00:40 | 33.53941 | -111.31280 | 8977 ft | 274 kts | 234° |
| 2026-04-23 00:40 | 33.52841 | -111.33134 | 8688 ft | 273 kts | 235° |
| 2026-04-23 00:40 | 33.51753 | -111.34993 | 8408 ft | 272 kts | 235° |
| 2026-04-23 00:41 | 33.50664 | -111.36840 | 8141 ft | 271 kts | 232° |
| 2026-04-23 00:41 | 33.49324 | -111.38411 | 7946 ft | 270 kts | 217° |
| 2026-04-23 00:41 | 33.47744 | -111.39653 | 7831 ft | 273 kts | 214° |
| 2026-04-23 00:41 | 33.46157 | -111.40885 | 7686 ft | 272 kts | 214° |
| 2026-04-23 00:42 | 33.44571 | -111.42119 | 7550 ft | 272 kts | 215° |
| 2026-04-23 00:42 | 33.43004 | -111.43341 | 7442 ft | 263 kts | 214° |
| 2026-04-23 00:42 | 33.41495 | -111.44512 | 7314 ft | 253 kts | 214° |
| 2026-04-23 00:42 | 33.40065 | -111.45620 | 7200 ft | 242 kts | 214° |
| 2026-04-23 00:43 | 33.38688 | -111.46690 | 7097 ft | 230 kts | 214° |
| 2026-04-23 00:43 | 33.37264 | -111.47479 | 6993 ft | 226 kts | 197° |
| 2026-04-23 00:43 | 33.35678 | -111.47663 | 6633 ft | 232 kts | 183° |
| 2026-04-23 00:43 | 33.34066 | -111.47652 | 6270 ft | 231 kts | 183° |
| 2026-04-23 00:44 | 33.32461 | -111.47644 | 5922 ft | 231 kts | 183° |
| 2026-04-23 00:44 | 33.30856 | -111.47640 | 5598 ft | 229 kts | 183° |
| 2026-04-23 00:44 | 33.29280 | -111.47587 | 5366 ft | 225 kts | 181° |
| 2026-04-23 00:44 | 33.27726 | -111.47474 | 5110 ft | 224 kts | 180° |
| 2026-04-23 00:45 | 33.26177 | -111.47390 | 4857 ft | 220 kts | 189° |
| 2026-04-23 00:45 | 33.24783 | -111.47997 | 4606 ft | 214 kts | 214° |
| 2026-04-23 00:45 | 33.23574 | -111.49009 | 4359 ft | 211 kts | 219° |
| 2026-04-23 00:45 | 33.22404 | -111.50067 | 4112 ft | 210 kts | 219° |
| 2026-04-23 00:46 | 33.21322 | -111.51167 | 4003 ft | 199 kts | 232° |
| 2026-04-23 00:46 | 33.20726 | -111.52600 | 3987 ft | 192 kts | 257° |
| 2026-04-23 00:46 | 33.20749 | -111.54182 | 3793 ft | 192 kts | 283° |
| 2026-04-23 00:46 | 33.21396 | -111.55547 | 3552 ft | 187 kts | 311° |
| 2026-04-23 00:47 | 33.22360 | -111.56528 | 3343 ft | 177 kts | 315° |
| 2026-04-23 00:47 | 33.23265 | -111.57438 | 3155 ft | 164 kts | 315° |
| 2026-04-23 00:47 | 33.24100 | -111.58298 | 2978 ft | 152 kts | 312° |
| 2026-04-23 00:47 | 33.24840 | -111.59148 | 2764 ft | 144 kts | 311° |
| 2026-04-23 00:48 | 33.25531 | -111.59956 | 2573 ft | 136 kts | 314° |
| 2026-04-23 00:48 | 33.26196 | -111.60739 | 2393 ft | 133 kts | 314° |
| 2026-04-23 00:48 | 33.26847 | -111.61510 | 2206 ft | 132 kts | 314° |
| 2026-04-23 00:48 | 33.27497 | -111.62291 | 2029 ft | 133 kts | 314° |
| 2026-04-23 00:49 | 33.28146 | -111.63071 | 1857 ft | 132 kts | 312° |
| 2026-04-23 00:49 | 33.28811 | -111.63846 | 1699 ft | 133 kts | 315° |
| 2026-04-23 00:49 | 33.29478 | -111.64612 | 1502 ft | 132 kts | 314° |
| 2026-04-23 00:49 | 33.30115 | -111.65362 | 1372 ft | 119 kts | 316° |
| 2026-04-23 00:50 | 33.30583 | -111.65906 | 1365 ft | 58 kts | 316° |
| 2026-04-23 00:50 | 33.30714 | -111.66070 | 1363 ft | 11 kts | 303° |
| 2026-04-23 00:50 | 33.30703 | -111.66166 | 1363 ft | 13 kts | 259° |
| 2026-04-23 00:50 | 33.30701 | -111.66276 | 1364 ft | 14 kts | 270° |
| 2026-04-23 00:51 | 33.30702 | -111.66405 | 1365 ft | 16 kts | 270° |
| 2026-04-23 00:51 | 33.30703 | -111.66549 | 1363 ft | 18 kts | 271° |
| 2026-04-23 00:51 | 33.30704 | -111.66679 | 1365 ft | 12 kts | 272° |
| 2026-04-23 00:51 | 33.30744 | -111.66748 | 1365 ft | 9 kts | 323° |
| 2026-04-23 00:52 | 33.30756 | -111.66814 | 1365 ft | 6 kts | 269° |
| 2026-04-23 00:52 | 33.30756 | -111.66836 | 1365 ft | 1 kts | 270° |
| 2026-04-23 00:52 | 33.30756 | -111.66838 | 1365 ft | 0 kts | 270° |